Friday, May 25, 2018, 9:00 AM EDT
Back to Local

KACY, Atlantic City International

Location: Absecon, NJ, United States Lat: 39.467
Local Time: 9:00 AM EDT (13:00 GMT) Lon: -74.583
Time Zone: US/Eastern Elev: 75 ft

Show me the last for .
Show Coded

Time T Td Feel RH Dir Speed Gust Alt SLP Vis Weather Sky Remarks
2018-05-25 07:54 70 62 - 76 240° 9 - 30.10 30.09 10 CLR 6-hr Min Temp (8am): 55.0°F
6-hr Max Temp (8am): 70.0°F
2018-05-25 06:54 62 59 - 89 240° 3 - 30.11 30.10 10 CLR None
2018-05-25 05:54 59 56 - 89 - Calm - 30.10 30.09 10 CLR None
2018-05-25 04:54 59 57 - 93 - Calm - 30.09 30.09 10 CLR None
2018-05-25 03:54 60 57 - 89 220° 3 - 30.10 30.09 10 CLR None
2018-05-25 02:54 60 55 - 83 - Calm - 30.11 30.10 10 CLR None
2018-05-25 01:54 63 55 - 75 - Calm - 30.12 30.12 10 CLR 6-hr Min Temp (2am): 62.1°F
6-hr Max Temp (2am): 70.0°F
2018-05-25 00:54 64 55 - 72 210° 5 - 30.13 30.13 10 CLR 24-hr Min Temp (1am): 57.9°F
24-hr Max Temp (1am): 82.9°F
2018-05-24 23:54 63 54 - 72 200° 5 - 30.14 30.14 10 CLR None
2018-05-24 22:54 64 53 - 67 200° 5 - 30.14 30.14 10 CLR None
2018-05-24 21:54 65 53 - 65 180° 6 - 30.14 30.14 10 CLR None
2018-05-24 20:54 67 52 - 58 190° 5 - 30.14 30.13 10 CLR None
2018-05-24 19:54 70 50 - 49 200° 8 - 30.13 30.12 10 CLR 6-hr Min Temp (8pm): 70.0°F
6-hr Max Temp (8pm): 81.0°F
2018-05-24 18:54 74 42 - 31 180° 8 - 30.13 30.12 10 CLR None
2018-05-24 17:54 75 34 - 22 170° 10 - 30.13 30.13 10 CLR None
2018-05-24 16:54 77 42 - 28 160° 13 - 30.13 30.13 10 CLR None
2018-05-24 15:54 79 45 - 30 160° 10 - 30.14 30.14 10 CLR None
2018-05-24 14:54 80 41 - 24 110° 12 - 30.14 30.14 10 CLR None
2018-05-24 13:54 81 50 - 34 130° 10 - 30.14 30.14 10 CLR 6-hr Min Temp (2pm): 70.0°F
6-hr Max Temp (2pm): 82.9°F
2018-05-24 12:54 83 43 - 24 320° 6 - 30.14 30.13 10 CLR None
2018-05-24 11:54 81 46 - 29 360° 9 22 30.15 30.14 10 CLR None
2018-05-24 10:54 79 52 - 39 20° 12 18 30.15 30.14 10 CLR None
2018-05-24 09:54 76 56 78 50 350° 9 - 30.14 30.14 10 CLR None

Support USWX by starting your Amazon purchase here.